ADDS TAF Board (Experimental) INFO Settings
IDs: Format: Expanded Condensed

KJFK - New York/Kennedy Int, NY, US

Issued at 1321 UTC 29 Apr 2016
Updated at: 1404 UTC 29 Apr 2016
Time1351Z 29/15Z 29/16Z 29/17Z 29/18Z 29/19Z 29/20Z 29/21Z 29/22Z 29/23Z 30/00Z 30/01Z 30/02Z 30/03Z
Type OBS PRVL PRVL PRVL PRVL PRVL PRVL PRVL PRVL PRVL PRVL PRVL PRVL PRVL
VIS 10 >6 >6 >6 >6 >6 >6 >6 >6 >6 >6 >6 >6 >6
CIG 65 60 60 60 60 60 60 60 50 50 50 50 50 40
Cover BKN OVC OVC OVC OVC OVC OVC OVC OVC OVC OVC OVC OVC OVC
FltCat VFR VFR VFR VFR VFR VFR VFR VFR VFR VFR VFR VFR VFR VFR
WX -- -- -- -- -- -- -- -- -RA -RA -RA -RA -RA -RA
WDir 100 90 90 100 100 100 100 100 100 100 100 100 100 40
WSpd 14 12 12 10 10 10 10 10 8 8 8 8 8 8
WGst -- 18 18 -- -- -- -- -- -- -- -- -- -- --
R04/22
XWnd -13 -10 -10 -9 -9 -9 -9 -9 -7 -7 -7 -7 -7 -1
XGst -- -15 -15 -- -- -- -- -- -- -- -- -- -- --
HWnd 5 6 6 4 4 4 4 4 3 3 3 3 3 8
HGst -- 9 9 -- -- -- -- -- -- -- -- -- -- --
R13/31
XWnd 5 6 6 4 4 4 4 4 3 3 3 3 3 8
XGst -- 9 9 -- -- -- -- -- -- -- -- -- -- --
HWnd 13 10 10 9 9 9 9 9 7 7 7 7 7 1
HGst -- 15 15 -- -- -- -- -- -- -- -- -- -- --

NOTE: TEMPO conditions in [brackets]. Keep in mind TEMPO conditions might be better (lower impact) than prevailing conditions.

Raw TAF
KJFK 291321Z 2913/3018 09012G18KT P6SM FEW030 OVC060
  FM291700 10010KT P6SM OVC060
  FM292200 10008KT P6SM -RA OVC050
  FM300300 04008KT P6SM -RA SCT025 OVC040
  FM300500 02009KT P6SM BKN060
  FM301300 05009KT P6SM SCT060
  FM301600 10010KT P6SM SCT060


Raw METAR
KJFK 291351Z 10014KT 10SM BKN065 BKN090 11/01 A3014 RMK AO2 SLP204 T01060011 $
KJFK 291251Z 08010KT 10SM FEW030 OVC065 11/02 A3012 RMK AO2 SLP198 T01060017 $
KJFK 291151Z 06010KT 10SM FEW031 BKN065 OVC085 10/03 A3012 RMK AO2 SLP197 T01000028 10100 20094 53016 $

METAR Board
Radar Display
Forecast Discussion

TAF Board Legend

Potential Impact
Threat None Slight Moderate High
Visibility (sm) ≥5.1 5.1>X≥3 3>X≥1 <1
Ceiling (100 ft) ≥30.1 30.1>X≥10 10>X≥5 <5
Wind Speed (kt) <10 10≤X<20 20≤X<30 ≥30
Wind Gust (kt) <15 15≤X<25 25≤X<35 ≥35
Weather No Wx Reported VCTS,-TS,-FZRA,SN TS,FZRA +TS,+FZRA,+SN